Time;durP1;ratioP1;P1;durP2;ratioP2;P2;SDS_P1;SDS_P2;PMS_P1;PMS_P2;Temp;Humidity;BMP_temperature;BMP_pressure;BME280_temperature;BME280_humidity;BME280_pressure;Samples;Min_cycle;Max_cycle;Signal;HPM_P1;HPM_P2
2022/11/02 00:00:29;;;;;;;4.25;0.70;;;12.00;99.90;;;;;;5102040;28;20085;-69
2022/11/02 00:02:54;;;;;;;10.30;2.00;;;12.00;99.90;;;;;;5103733;28;20130;-69
2022/11/02 00:05:23;;;;;;;6.85;1.52;;;11.90;99.90;;;;;;5106343;27;20213;-69
2022/11/02 00:07:51;;;;;;;6.20;1.00;;;11.90;99.90;;;;;;5102819;28;20062;-70
2022/11/02 00:10:18;;;;;;;6.40;0.65;;;11.90;99.90;;;;;;5106359;28;20035;-69
2022/11/02 00:12:44;;;;;;;2.45;0.65;;;11.90;99.90;;;;;;5105225;28;20153;-70
2022/11/02 00:15:10;;;;;;;9.35;0.93;;;11.90;99.90;;;;;;5105404;28;20414;-69
2022/11/02 00:17:36;;;;;;;5.80;0.60;;;11.90;99.90;;;;;;5104646;28;20032;-70
2022/11/02 00:20:05;;;;;;;3.97;0.63;;;11.90;99.90;;;;;;5104850;28;20039;-69
2022/11/02 00:22:32;;;;;;;7.28;0.50;;;11.90;99.90;;;;;;5105814;28;20077;-71
2022/11/02 00:24:59;;;;;;;5.75;1.23;;;11.90;99.90;;;;;;5104018;28;20035;-70
2022/11/02 00:27:25;;;;;;;3.70;0.80;;;11.90;99.90;;;;;;5104638;28;20038;-69
2022/11/02 00:29:50;;;;;;;8.57;1.60;;;11.90;99.90;;;;;;5105051;28;20028;-69
2022/11/02 00:32:16;;;;;;;4.03;0.85;;;11.90;99.90;;;;;;5104974;28;20055;-69
2022/11/02 00:34:42;;;;;;;12.95;1.50;;;11.90;99.90;;;;;;5104868;28;20054;-69
2022/11/02 00:37:07;;;;;;;3.13;0.60;;;11.90;99.90;;;;;;5103279;28;20039;-69
2022/11/02 00:39:33;;;;;;;6.85;1.08;;;11.90;99.90;;;;;;5096170;28;20053;-70
2022/11/02 00:41:58;;;;;;;4.40;0.65;;;11.90;99.90;;;;;;5112412;28;20121;-70
2022/11/02 00:44:24;;;;;;;7.45;0.98;;;11.90;99.90;;;;;;5085639;28;20036;-70
2022/11/02 00:46:49;;;;;;;5.43;1.08;;;11.90;99.90;;;;;;5086443;28;20036;-71
2022/11/02 00:49:15;;;;;;;13.80;2.25;;;12.00;99.90;;;;;;5086636;28;20032;-70
2022/11/02 00:51:42;;;;;;;5.93;1.88;;;12.10;99.90;;;;;;5086921;28;20111;-70
2022/11/02 00:54:07;;;;;;;4.63;0.50;;;12.10;99.90;;;;;;5082490;28;20434;-70
2022/11/02 00:56:33;;;;;;;7.75;0.43;;;12.00;99.90;;;;;;5085534;28;20082;-69
2022/11/02 00:58:58;;;;;;;3.08;0.55;;;11.90;99.90;;;;;;5087869;28;20836;-69
2022/11/02 01:01:24;;;;;;;3.38;0.30;;;11.70;99.90;;;;;;5084818;28;21771;-70
2022/11/02 01:03:49;;;;;;;4.63;0.47;;;11.60;99.90;;;;;;5082187;28;20039;-71
2022/11/02 01:06:15;;;;;;;3.70;0.40;;;11.50;99.90;;;;;;5083892;28;20040;-70
2022/11/02 01:08:41;;;;;;;8.75;0.90;;;11.40;99.90;;;;;;5082447;28;20048;-68
2022/11/02 01:11:17;;;;;;;2.95;0.28;;;11.40;99.90;;;;;;5084895;28;20491;-69
2022/11/02 01:13:44;;;;;;;4.72;0.50;;;11.20;99.90;;;;;;5082760;28;20036;-71
2022/11/02 01:16:11;;;;;;;6.18;0.40;;;11.20;99.90;;;;;;5086026;28;20030;-69
2022/11/02 01:18:37;;;;;;;8.30;1.75;;;11.10;99.90;;;;;;5083933;28;20476;-69
2022/11/02 01:21:03;;;;;;;3.63;0.20;;;11.10;99.90;;;;;;5084111;28;20088;-69
2022/11/02 01:23:34;;;;;;;1.25;0.20;;;11.00;99.90;;;;;;5084398;28;20032;-69
2022/11/02 01:26:08;;;;;;;3.40;0.52;;;11.00;99.90;;;;;;5084139;28;20054;-69
2022/11/02 01:28:34;;;;;;;1.10;0.50;;;11.00;99.90;;;;;;5082177;28;20070;-69
2022/11/02 01:31:00;;;;;;;4.70;0.50;;;11.00;99.90;;;;;;5083425;28;20902;-69
2022/11/02 01:33:26;;;;;;;1.77;0.10;;;11.00;99.90;;;;;;5085210;28;20078;-69
2022/11/02 01:35:52;;;;;;;2.20;0.25;;;10.80;99.90;;;;;;5082863;28;20040;-69
2022/11/02 01:38:18;;;;;;;4.22;0.30;;;10.80;99.90;;;;;;5089016;28;20051;-69
2022/11/02 01:40:44;;;;;;;2.05;0.20;;;10.70;99.90;;;;;;5088136;28;20090;-69
2022/11/02 01:43:25;;;;;;;1.50;0.30;;;10.70;99.90;;;;;;5087105;28;20135;-69
2022/11/02 01:46:13;;;;;;;3.78;0.20;;;10.60;99.90;;;;;;5087971;28;20055;-70
2022/11/02 01:48:41;;;;;;;5.15;0.20;;;10.50;99.90;;;;;;5085664;28;20032;-72
2022/11/02 01:51:12;;;;;;;7.40;0.40;;;10.50;99.90;;;;;;5090263;28;20054;-69
2022/11/02 01:53:41;;;;;;;4.10;0.30;;;10.40;99.90;;;;;;5088154;28;20089;-69
2022/11/02 01:56:11;;;;;;;3.00;0.52;;;10.30;99.90;;;;;;5106449;28;20035;-70
2022/11/02 01:58:37;;;;;;;5.85;0.40;;;10.30;99.90;;;;;;5109660;27;20032;-70
2022/11/02 02:01:03;;;;;;;3.13;0.63;;;10.20;99.90;;;;;;5106759;27;20040;-69
2022/11/02 02:03:30;;;;;;;3.78;0.30;;;10.20;99.90;;;;;;5109034;27;20028;-69
2022/11/02 02:06:11;;;;;;;5.40;0.20;;;10.20;99.90;;;;;;5106586;28;20089;-69
2022/11/02 02:08:42;;;;;;;3.45;0.77;;;10.20;99.90;;;;;;5106546;27;20407;-69
2022/11/02 02:11:24;;;;;;;2.22;0.28;;;10.20;99.90;;;;;;5098647;28;20038;-69
2022/11/02 02:13:50;;;;;;;5.38;1.27;;;10.20;99.90;;;;;;5106708;27;20786;-71
2022/11/02 02:16:24;;;;;;;9.70;1.15;;;10.20;99.90;;;;;;5108975;28;20483;-69
2022/11/02 02:18:58;;;;;;;9.57;1.65;;;10.30;99.90;;;;;;5108052;28;20132;-70
2022/11/02 02:21:41;;;;;;;4.82;0.90;;;10.30;99.90;;;;;;5108627;28;20039;-70
2022/11/02 02:24:35;;;;;;;2.97;0.40;;;10.30;99.90;;;;;;5084366;28;20036;-69
2022/11/02 02:27:28;;;;;;;5.55;1.02;;;10.40;99.90;;;;;;5084295;28;20040;-70
2022/11/02 02:30:09;;;;;;;7.07;0.82;;;10.40;99.90;;;;;;5087198;28;20047;-70
2022/11/02 02:32:46;;;;;;;4.18;0.70;;;10.50;99.90;;;;;;5082789;28;20119;-69
2022/11/02 02:36:20;;;;;;;4.18;0.60;;;10.60;99.90;;;;;;5085899;28;20074;-70
2022/11/02 02:38:56;;;;;;;7.95;0.40;;;10.70;99.90;;;;;;4968494;28;20169;-70
2022/11/02 02:41:33;;;;;;;8.93;0.95;;;10.80;99.90;;;;;;4976899;28;20038;-69
2022/11/02 02:44:01;;;;;;;12.48;1.00;;;10.80;99.90;;;;;;5063747;28;20460;-70
2022/11/02 02:46:51;;;;;;;6.47;0.57;;;10.90;99.90;;;;;;5083293;28;20089;-70
2022/11/02 02:49:29;;;;;;;11.47;0.77;;;11.00;99.90;;;;;;5102092;27;20030;-69
2022/11/02 02:51:56;;;;;;;4.40;0.70;;;11.00;99.90;;;;;;5100783;28;20085;-69
2022/11/02 02:54:50;;;;;;;4.75;0.77;;;11.00;99.90;;;;;;5105846;28;20550;-70
2022/11/02 02:57:20;;;;;;;8.98;1.20;;;11.00;99.90;;;;;;5091529;28;20097;-69
2022/11/02 02:59:47;;;;;;;5.83;0.80;;;11.10;99.90;;;;;;5105702;28;20036;-69
2022/11/02 03:02:24;;;;;;;5.22;0.70;;;11.10;99.90;;;;;;5106972;27;20031;-71
2022/11/02 03:04:49;;;;;;;6.32;0.80;;;11.10;99.90;;;;;;5104897;27;20031;-69
2022/11/02 03:07:21;;;;;;;5.85;0.75;;;11.20;99.90;;;;;;5107491;28;20112;-70
2022/11/02 03:10:10;;;;;;;4.35;0.40;;;11.20;99.90;;;;;;5107098;28;20035;-70
2022/11/02 03:12:40;;;;;;;;;;;11.30;99.90;;;;;;5097728;27;20153;-69
2022/11/02 03:15:21;;;;;;;6.20;0.82;;;11.30;99.90;;;;;;5103657;27;19923;-68
2022/11/02 03:18:05;;;;;;;5.07;0.82;;;11.30;99.90;;;;;;5103827;27;20132;-69
2022/11/02 03:20:42;;;;;;;6.90;0.82;;;11.30;99.90;;;;;;5111100;27;20999;-69
2022/11/02 03:23:40;;;;;;;7.88;1.42;;;11.20;99.90;;;;;;5091347;27;20040;-69
2022/11/02 03:26:23;;;;;;;2.95;0.80;;;11.20;99.90;;;;;;5086192;27;20060;-69
2022/11/02 03:29:07;;;;;;;8.65;1.33;;;11.30;99.90;;;;;;5083281;28;20040;-74
2022/11/02 03:31:36;;;;;;;6.88;1.33;;;11.30;99.90;;;;;;5083812;28;20040;-69
2022/11/02 03:34:13;;;;;;;7.00;0.80;;;11.20;99.90;;;;;;5084662;28;20488;-70
2022/11/02 03:36:48;;;;;;;3.30;0.93;;;11.30;99.90;;;;;;5085050;28;20110;-69
2022/11/02 03:39:16;;;;;;;7.68;1.20;;;11.30;99.90;;;;;;5097081;28;20028;-69
2022/11/02 03:41:45;;;;;;;5.15;0.73;;;11.30;99.90;;;;;;5105800;27;20050;-70
2022/11/02 03:44:16;;;;;;;11.80;1.20;;;11.30;99.90;;;;;;5105549;27;20047;-70
2022/11/02 03:46:43;;;;;;;3.92;0.63;;;11.30;99.90;;;;;;5106421;27;20070;-69
2022/11/02 03:49:12;;;;;;;6.65;0.98;;;11.30;99.90;;;;;;5106845;27;20104;-69
2022/11/02 03:51:42;;;;;;;8.32;1.33;;;11.40;99.90;;;;;;5106362;28;20063;-68
2022/11/02 03:54:30;;;;;;;3.45;0.68;;;11.40;99.90;;;;;;5084815;28;20043;-68
2022/11/02 03:56:58;;;;;;;7.28;1.20;;;11.40;99.90;;;;;;5080804;28;20561;-69
2022/11/02 03:59:24;;;;;;;7.53;1.48;;;11.40;99.90;;;;;;5085723;28;20499;-69
2022/11/02 04:01:51;;;;;;;7.70;1.20;;;11.40;99.90;;;;;;5085007;28;20043;-71
2022/11/02 04:04:17;;;;;;;9.98;0.82;;;11.40;99.90;;;;;;5085081;28;20104;-68
2022/11/02 04:06:45;;;;;;;8.43;1.33;;;11.40;99.90;;;;;;5086834;28;20476;-70
2022/11/02 04:09:11;;;;;;;10.45;2.45;;;11.40;99.90;;;;;;5100366;28;20032;-71
2022/11/02 04:14:36;;;;;;;22.05;2.10;;;11.40;99.90;;;;;;5101468;27;20034;-71
2022/11/02 04:19:47;;;;;;;9.25;1.65;;;11.40;99.90;;;;;;5105884;28;20034;-70
2022/11/02 04:25:17;;;;;;;8.93;1.40;;;11.30;99.90;;;;;;5101872;28;20042;-69
2022/11/02 04:27:50;;;;;;;11.05;2.05;;;11.30;99.90;;;;;;5105036;28;20058;-69
2022/11/02 04:30:18;;;;;;;9.05;1.58;;;11.30;99.90;;;;;;5106300;28;20039;-71
2022/11/02 04:35:31;;;;;;;7.97;1.33;;;11.30;99.90;;;;;;5102638;28;20872;-69
2022/11/02 04:40:41;;;;;;;14.05;1.38;;;11.30;99.90;;;;;;5105235;28;20073;-69
2022/11/02 04:43:07;;;;;;;13.93;2.42;;;11.30;99.90;;;;;;5105331;28;20039;-69
2022/11/02 04:45:32;;;;;;;9.20;1.00;;;11.40;99.90;;;;;;5105469;28;20028;-70
2022/11/02 04:48:02;;;;;;;9.35;1.48;;;11.30;99.90;;;;;;5102962;28;20047;-70
2022/11/02 04:50:28;;;;;;;14.57;1.67;;;11.30;99.90;;;;;;5106007;28;20049;-69
2022/11/02 04:52:58;;;;;;;14.85;2.13;;;11.30;99.90;;;;;;5103844;28;20115;-70
2022/11/02 04:55:24;;;;;;;11.43;1.17;;;11.20;99.90;;;;;;5105529;28;20027;-70
2022/11/02 04:57:50;;;;;;;12.20;1.60;;;11.20;99.90;;;;;;5104429;28;20035;-71
2022/11/02 05:00:16;;;;;;;12.52;1.60;;;11.10;99.90;;;;;;5103946;28;20031;-69
2022/11/02 05:02:42;;;;;;;9.77;1.33;;;11.10;99.90;;;;;;5102590;28;20040;-70
2022/11/02 05:05:08;;;;;;;19.13;2.13;;;11.10;99.90;;;;;;5103139;28;20032;-70
2022/11/02 05:07:33;;;;;;;12.00;2.97;;;11.10;99.90;;;;;;5105351;28;20040;-71
2022/11/02 05:09:59;;;;;;;13.93;1.45;;;11.00;99.90;;;;;;5092171;28;20031;-71
2022/11/02 05:12:24;;;;;;;11.98;1.63;;;11.00;99.90;;;;;;5106995;28;20507;-70
2022/11/02 05:14:50;;;;;;;17.23;1.20;;;11.00;99.90;;;;;;5108453;28;20031;-70
2022/11/02 05:17:15;;;;;;;15.68;1.88;;;10.90;99.90;;;;;;5105351;28;20162;-69
2022/11/02 05:19:41;;;;;;;13.88;1.13;;;10.90;99.90;;;;;;5107604;27;20044;-71
2022/11/02 05:22:07;;;;;;;13.05;1.13;;;10.80;99.90;;;;;;5109090;27;20131;-69
2022/11/02 05:24:32;;;;;;;9.27;1.55;;;10.80;99.90;;;;;;5108661;27;20491;-70
2022/11/02 05:27:01;;;;;;;8.70;1.27;;;10.80;99.90;;;;;;5108427;27;20040;-70
2022/11/02 05:29:27;;;;;;;11.23;0.98;;;10.80;99.90;;;;;;5109000;28;20081;-70
2022/11/02 05:31:52;;;;;;;5.45;0.80;;;10.80;99.90;;;;;;5105727;27;20490;-70
2022/11/02 05:34:18;;;;;;;10.25;1.08;;;10.80;99.90;;;;;;5107921;27;20488;-69
2022/11/02 05:36:46;;;;;;;7.57;1.48;;;10.80;99.90;;;;;;5108043;27;20031;-69
2022/11/02 05:39:12;;;;;;;7.40;1.30;;;10.80;99.90;;;;;;5108266;27;20028;-70
2022/11/02 05:41:37;;;;;;;18.23;2.28;;;10.80;99.90;;;;;;5108641;27;20034;-71
2022/11/02 05:44:03;;;;;;;7.47;1.23;;;10.80;99.90;;;;;;5105376;27;20060;-69
2022/11/02 05:46:29;;;;;;;13.93;2.00;;;10.80;99.90;;;;;;5107177;28;20077;-71
2022/11/02 05:48:54;;;;;;;12.48;1.60;;;10.90;99.90;;;;;;5106700;27;20095;-73
2022/11/02 05:51:20;;;;;;;8.32;1.30;;;10.90;99.90;;;;;;5105796;27;20036;-70
2022/11/02 05:53:45;;;;;;;5.28;1.17;;;10.90;99.90;;;;;;5104863;28;20455;-69
2022/11/02 05:56:12;;;;;;;10.32;2.30;;;10.90;99.90;;;;;;5106664;27;20131;-69
2022/11/02 05:58:38;;;;;;;9.85;0.88;;;10.90;99.90;;;;;;5107127;27;20028;-69
2022/11/02 06:01:06;;;;;;;10.63;1.00;;;10.90;99.90;;;;;;5107666;27;20036;-70
2022/11/02 06:03:33;;;;;;;8.18;0.60;;;10.90;99.90;;;;;;5102248;28;20130;-69
2022/11/02 06:06:00;;;;;;;11.57;1.35;;;10.90;99.90;;;;;;5088989;28;20071;-71
2022/11/02 06:08:26;;;;;;;9.45;1.45;;;10.80;99.90;;;;;;5086404;28;20036;-69
2022/11/02 06:10:52;;;;;;;10.07;0.70;;;10.80;99.90;;;;;;5085755;28;20036;-70
2022/11/02 06:13:18;;;;;;;8.40;0.75;;;10.70;99.90;;;;;;5083420;28;20093;-69
2022/11/02 06:15:44;;;;;;;6.03;1.02;;;10.70;99.90;;;;;;5083013;28;20062;-69
2022/11/02 06:18:09;;;;;;;15.85;1.38;;;10.70;99.90;;;;;;5099576;27;20822;-69
2022/11/02 06:20:35;;;;;;;11.07;1.55;;;10.60;99.90;;;;;;5089543;27;20492;-69
2022/11/02 06:23:00;;;;;;;7.07;1.45;;;10.60;99.90;;;;;;5085677;28;20131;-69
2022/11/02 06:25:26;;;;;;;13.48;0.95;;;10.60;99.90;;;;;;5089168;28;20043;-70
2022/11/02 06:27:55;;;;;;;4.15;0.50;;;10.50;99.90;;;;;;5090482;27;20051;-71
2022/11/02 06:30:23;;;;;;;10.23;1.23;;;10.50;99.90;;;;;;5086443;28;20032;-69
2022/11/02 06:32:51;;;;;;;7.15;0.80;;;10.40;99.90;;;;;;5088814;28;20044;-70
2022/11/02 06:35:18;;;;;;;5.45;0.65;;;10.50;99.90;;;;;;5091650;28;20134;-69
2022/11/02 06:37:44;;;;;;;7.53;0.80;;;10.50;99.90;;;;;;5085210;28;20101;-70
2022/11/02 06:40:11;;;;;;;5.45;0.40;;;10.40;99.90;;;;;;5088837;28;20104;-70
2022/11/02 06:42:37;;;;;;;4.00;0.40;;;10.40;99.90;;;;;;5102725;28;20035;-69
2022/11/02 06:45:03;;;;;;;9.63;0.63;;;10.50;99.90;;;;;;5086532;27;20038;-70
2022/11/02 06:47:33;;;;;;;4.05;0.65;;;10.50;99.90;;;;;;5084121;28;20040;-70
2022/11/02 06:49:59;;;;;;;;;;;10.40;99.90;;;;;;5084331;27;20043;-70
2022/11/02 06:52:26;;;;;;;5.20;0.60;;;10.40;99.90;;;;;;5081069;28;20307;-69
2022/11/02 06:54:52;;;;;;;8.23;0.85;;;10.40;99.90;;;;;;5086902;27;20040;-69
2022/11/02 06:57:18;;;;;;;8.00;0.90;;;10.50;99.90;;;;;;5097547;27;20047;-70
2022/11/02 06:59:44;;;;;;;9.82;1.40;;;10.50;99.90;;;;;;5083489;28;20138;-70
2022/11/02 07:02:09;;;;;;;6.72;0.50;;;10.40;99.90;;;;;;5082854;28;20035;-69
2022/11/02 07:04:35;;;;;;;10.38;1.70;;;10.40;99.90;;;;;;5082655;28;20039;-69
2022/11/02 07:07:00;;;;;;;7.88;0.73;;;10.40;99.90;;;;;;5083935;28;20395;-70
2022/11/02 07:09:26;;;;;;;9.57;0.88;;;10.40;99.90;;;;;;5085226;28;20479;-69
2022/11/02 07:11:52;;;;;;;8.82;0.82;;;10.40;99.90;;;;;;5085328;28;20055;-69
2022/11/02 07:14:17;;;;;;;5.78;0.60;;;10.40;99.90;;;;;;5082089;28;20555;-71
2022/11/02 07:16:43;;;;;;;7.10;0.60;;;10.40;99.90;;;;;;5084940;27;20527;-72
2022/11/02 07:19:08;;;;;;;3.28;0.50;;;10.40;99.90;;;;;;5080139;28;20682;-69
2022/11/02 07:21:34;;;;;;;4.63;0.63;;;10.40;99.90;;;;;;5085279;28;20036;-70
2022/11/02 07:24:00;;;;;;;5.88;0.90;;;10.40;99.90;;;;;;5083320;28;20778;-69
2022/11/02 07:26:26;;;;;;;11.27;0.82;;;10.40;99.90;;;;;;5085130;28;20047;-69
2022/11/02 07:28:51;;;;;;;3.70;0.55;;;10.40;99.90;;;;;;5082979;28;20040;-71
2022/11/02 07:31:18;;;;;;;6.28;0.60;;;10.40;99.90;;;;;;5083595;28;20064;-70
2022/11/02 07:33:44;;;;;;;7.50;0.55;;;10.40;99.90;;;;;;5077610;28;20056;-70
2022/11/02 07:36:09;;;;;;;8.57;1.27;;;10.40;99.90;;;;;;5083946;28;20036;-69
2022/11/02 07:38:35;;;;;;;4.68;1.23;;;10.40;99.90;;;;;;5083120;28;20928;-69
2022/11/02 07:41:01;;;;;;;6.70;0.95;;;10.30;99.90;;;;;;5083434;28;20428;-70
2022/11/02 07:43:26;;;;;;;12.32;0.57;;;10.30;99.90;;;;;;5083008;28;20867;-69
2022/11/02 07:45:52;;;;;;;4.28;0.40;;;10.30;99.90;;;;;;5083454;28;20043;-70
2022/11/02 07:48:17;;;;;;;3.50;0.65;;;10.30;99.90;;;;;;5082854;28;20086;-70
2022/11/02 07:50:43;;;;;;;6.53;0.82;;;10.30;99.90;;;;;;5083834;28;20427;-69
2022/11/02 07:53:09;;;;;;;3.10;0.40;;;10.40;99.90;;;;;;5083304;28;20122;-71
2022/11/02 07:55:34;;;;;;;3.53;0.50;;;10.40;99.90;;;;;;5082717;28;20745;-70
2022/11/02 07:58:06;;;;;;;7.93;1.35;;;10.40;99.90;;;;;;5082296;28;20434;-71
2022/11/02 08:00:36;;;;;;;8.65;0.90;;;10.50;99.90;;;;;;5083631;28;20059;-70
2022/11/02 08:03:02;;;;;;;2.92;0.60;;;10.60;99.90;;;;;;5080630;28;20785;-71
2022/11/02 08:05:30;;;;;;;3.83;0.63;;;10.70;99.90;;;;;;5084814;28;20059;-70
2022/11/02 08:08:00;;;;;;;11.45;1.90;;;10.70;99.90;;;;;;5081432;28;20131;-69
2022/11/02 08:10:26;;;;;;;;;;;10.70;99.90;;;;;;5083583;28;20500;-69
2022/11/02 08:12:53;;;;;;;9.50;0.70;;;10.70;99.90;;;;;;5079767;28;19920;-70
2022/11/02 08:15:18;;;;;;;10.70;1.00;;;10.80;99.90;;;;;;5082531;28;20131;-71
2022/11/02 08:17:44;;;;;;;10.27;1.58;;;10.80;99.90;;;;;;5080880;28;20032;-71
2022/11/02 08:20:10;;;;;;;6.50;1.13;;;10.80;99.90;;;;;;5082384;28;20035;-70
2022/11/02 08:22:37;;;;;;;7.20;1.15;;;10.90;99.90;;;;;;5082462;28;20514;-70
2022/11/02 08:25:02;;;;;;;11.55;0.75;;;10.90;99.90;;;;;;5080375;28;20946;-69
2022/11/02 08:27:28;;;;;;;4.70;0.90;;;11.00;99.90;;;;;;5081595;28;20036;-70
2022/11/02 08:29:53;;;;;;;4.07;1.20;;;11.10;99.90;;;;;;5080855;28;20090;-71
2022/11/02 08:32:19;;;;;;;4.18;0.60;;;11.20;99.90;;;;;;5082191;28;20504;-70
2022/11/02 08:34:45;;;;;;;3.28;0.38;;;11.30;99.90;;;;;;5079535;28;20097;-71
2022/11/02 08:37:11;;;;;;;4.25;0.35;;;11.40;99.90;;;;;;5082649;28;20116;-70
2022/11/02 08:39:36;;;;;;;6.70;1.05;;;11.40;99.90;;;;;;5080560;28;20047;-71
2022/11/02 08:42:02;;;;;;;3.42;0.63;;;11.50;99.90;;;;;;5079884;28;20201;-70
2022/11/02 08:44:27;;;;;;;6.97;1.23;;;11.60;99.90;;;;;;5081661;28;20086;-70
2022/11/02 08:46:54;;;;;;;6.18;0.93;;;11.60;99.90;;;;;;5086298;28;20032;-69
2022/11/02 08:49:20;;;;;;;4.22;1.25;;;11.70;99.90;;;;;;5086447;28;20127;-69
2022/11/02 08:51:46;;;;;;;10.70;1.08;;;11.90;99.90;;;;;;5085689;27;20123;-70
2022/11/02 08:54:12;;;;;;;5.50;0.70;;;11.90;99.90;;;;;;5083285;28;20032;-70
2022/11/02 08:56:37;;;;;;;6.07;0.40;;;12.00;99.90;;;;;;5086862;28;20028;-70
2022/11/02 08:59:03;;;;;;;12.75;0.88;;;12.10;99.90;;;;;;5085837;28;20040;-70
2022/11/02 09:01:31;;;;;;;11.60;1.80;;;12.20;99.90;;;;;;5086474;28;20599;-70
2022/11/02 09:03:56;;;;;;;5.07;0.80;;;12.30;99.90;;;;;;5085069;28;20036;-71
2022/11/02 09:06:22;;;;;;;7.72;0.82;;;12.30;99.90;;;;;;5084941;28;20036;-69
2022/11/02 09:08:47;;;;;;;7.90;0.80;;;12.30;99.90;;;;;;5084108;28;20492;-69
2022/11/02 09:11:13;;;;;;;6.68;0.60;;;12.40;99.90;;;;;;5086062;28;20044;-69
2022/11/02 09:13:39;;;;;;;5.15;0.88;;;12.40;99.90;;;;;;5085835;28;20455;-68
2022/11/02 09:16:05;;;;;;;6.68;0.90;;;12.50;99.90;;;;;;5084949;28;20118;-70
2022/11/02 09:18:30;;;;;;;3.92;0.63;;;12.50;99.90;;;;;;5086523;28;20059;-70
2022/11/02 09:20:59;;;;;;;5.38;0.77;;;12.50;99.90;;;;;;5087241;28;20062;-71
2022/11/02 09:23:25;;;;;;;6.68;1.05;;;12.70;99.90;;;;;;5080210;28;20036;-70
2022/11/02 09:25:51;;;;;;;7.00;1.02;;;12.70;99.90;;;;;;5087417;28;20050;-70
2022/11/02 09:28:17;;;;;;;9.85;0.93;;;12.70;99.90;;;;;;5086164;28;20046;-68
2022/11/02 09:30:42;;;;;;;8.55;1.08;;;12.70;99.90;;;;;;5089575;28;20514;-69
2022/11/02 09:33:09;;;;;;;8.27;1.40;;;12.70;99.90;;;;;;5085520;28;21159;-70
2022/11/02 09:35:37;;;;;;;5.40;0.88;;;12.80;99.90;;;;;;5085213;28;20035;-69
2022/11/02 09:38:03;;;;;;;8.52;0.73;;;12.80;99.90;;;;;;5083356;28;20036;-68
2022/11/02 09:40:36;;;;;;;6.20;0.95;;;12.70;99.90;;;;;;5085967;28;20148;-69
2022/11/02 09:43:16;;;;;;;4.47;0.95;;;12.70;99.90;;;;;;5082637;28;20066;-69
2022/11/02 09:45:59;;;;;;;5.55;0.57;;;12.80;99.90;;;;;;5084561;28;20137;-69
2022/11/02 09:48:36;;;;;;;3.40;0.70;;;12.70;99.90;;;;;;5089596;27;20127;-69
2022/11/02 09:51:08;;;;;;;6.47;1.58;;;12.60;99.90;;;;;;5095966;27;20040;-69
2022/11/02 09:54:00;;;;;;;5.45;0.77;;;12.60;99.90;;;;;;5087503;28;20067;-70
2022/11/02 09:56:26;;;;;;;10.35;1.27;;;12.60;99.90;;;;;;5098443;27;20515;-71
2022/11/02 09:59:09;;;;;;;6.18;0.50;;;12.60;99.90;;;;;;5087581;28;20036;-72
2022/11/02 10:02:10;;;;;;;11.00;0.90;;;12.60;99.90;;;;;;5084202;28;20114;-70
2022/11/02 10:05:00;;;;;;;;;;;12.70;99.90;;;;;;5085989;27;20043;-70
2022/11/02 10:07:53;;;;;;;6.60;0.77;;;12.80;99.90;;;;;;5093327;27;19923;-69
2022/11/02 10:10:32;;;;;;;4.45;0.70;;;12.90;99.90;;;;;;5092839;28;20345;-70
2022/11/02 10:13:03;;;;;;;8.65;1.42;;;13.00;99.90;;;;;;5087616;27;20503;-70
2022/11/02 10:15:50;;;;;;;;;;;13.00;99.90;;;;;;5082693;28;20538;-69
2022/11/02 10:18:27;;;;;;;6.47;0.57;;;13.10;99.90;;;;;;5083495;28;19969;-69
2022/11/02 10:21:20;;;;;;;5.53;0.57;;;13.10;99.90;;;;;;5096776;27;20051;-71
2022/11/02 10:24:09;;;;;;;11.68;0.63;;;13.20;99.90;;;;;;5077122;28;20096;-69
2022/11/02 10:26:42;;;;;;;4.05;0.63;;;13.30;99.90;;;;;;5084742;28;20032;-71
2022/11/02 10:29:25;;;;;;;9.82;0.55;;;13.50;99.90;;;;;;5085134;27;20074;-70
2022/11/02 10:31:51;;;;;;;5.90;0.75;;;13.60;99.90;;;;;;5085897;28;20226;-72
2022/11/02 10:34:26;;;;;;;8.40;0.80;;;13.70;99.90;;;;;;5086607;28;20500;-70
2022/11/02 10:37:13;;;;;;;6.15;0.85;;;13.70;99.90;;;;;;5086622;28;20036;-69
2022/11/02 10:39:57;;;;;;;8.43;0.95;;;13.70;99.90;;;;;;5083139;28;20114;-69
2022/11/02 10:42:39;;;;;;;9.27;1.85;;;13.70;99.90;;;;;;5094748;27;20044;-69
2022/11/02 10:45:37;;;;;;;9.05;0.80;;;13.80;99.90;;;;;;5087038;27;20154;-70
2022/11/02 10:48:38;;;;;;;11.40;0.90;;;14.20;99.90;;;;;;5085695;27;20058;-69
2022/11/02 10:51:11;;;;;;;10.27;1.60;;;14.60;99.90;;;;;;5085492;28;20819;-70
2022/11/02 10:53:45;;;;;;;11.45;1.27;;;14.80;99.90;;;;;;5083639;28;20040;-70
2022/11/02 10:56:20;;;;;;;5.95;0.70;;;14.70;99.90;;;;;;5089741;28;20043;-71
2022/11/02 10:59:01;;;;;;;8.65;0.95;;;14.60;99.90;;;;;;5088413;27;20126;-69
2022/11/02 11:01:29;;;;;;;14.80;2.22;;;14.50;99.90;;;;;;5083036;28;20032;-70
2022/11/02 11:04:03;;;;;;;10.48;1.10;;;14.50;99.90;;;;;;5078857;28;20041;-69
2022/11/02 11:06:38;;;;;;;16.90;1.42;;;14.60;99.90;;;;;;5081320;28;20035;-69
2022/11/02 11:09:13;;;;;;;17.52;1.70;;;14.90;99.90;;;;;;5083378;28;20055;-71
2022/11/02 11:11:38;;;;;;;9.65;1.00;;;15.10;99.90;;;;;;5081643;28;20040;-69
2022/11/02 11:14:16;;;;;;;6.55;0.82;;;15.20;99.90;;;;;;5076110;28;20087;-70
2022/11/02 11:16:48;;;;;;;6.88;1.30;;;15.00;99.90;;;;;;5083847;28;20052;-70
2022/11/02 11:19:34;;;;;;;12.50;1.20;;;14.70;99.90;;;;;;5083183;28;20389;-70
2022/11/02 11:22:00;;;;;;;5.82;0.60;;;14.60;99.90;;;;;;5078982;28;20052;-69
2022/11/02 11:24:34;;;;;;;11.45;1.52;;;14.40;99.90;;;;;;5079706;28;20116;-69
2022/11/02 11:27:11;;;;;;;9.50;0.82;;;14.30;99.90;;;;;;5076445;28;20036;-70
2022/11/02 11:29:39;;;;;;;7.85;1.25;;;14.20;99.90;;;;;;5078354;28;20032;-70
2022/11/02 11:32:18;;;;;;;12.43;1.38;;;14.10;99.90;;;;;;5081294;28;20357;-69
2022/11/02 11:34:52;;;;;;;10.98;1.17;;;14.10;99.90;;;;;;5081456;28;20503;-69
2022/11/02 11:37:17;;;;;;;6.35;1.15;;;14.00;99.90;;;;;;5081994;28;20035;-69
2022/11/02 11:39:49;;;;;;;6.22;0.70;;;14.00;99.90;;;;;;5080514;28;20036;-69
2022/11/02 11:42:20;;;;;;;4.47;0.88;;;14.00;99.90;;;;;;5090094;27;20024;-70
2022/11/02 11:45:17;;;;;;;22.38;1.42;;;14.00;99.90;;;;;;5089879;27;20035;-70
2022/11/02 11:47:43;;;;;;;6.65;0.68;;;14.00;99.90;;;;;;5090498;27;20043;-71
2022/11/02 11:50:14;;;;;;;9.68;0.93;;;14.00;99.90;;;;;;5098274;27;20031;-70
2022/11/02 11:52:40;;;;;;;5.60;1.17;;;14.00;99.90;;;;;;5104904;27;20107;-70
2022/11/02 11:55:26;;;;;;;5.72;1.35;;;14.00;99.90;;;;;;5095164;27;20161;-70
2022/11/02 11:58:10;;;;;;;5.90;1.00;;;13.90;99.90;;;;;;5085016;27;20055;-70
2022/11/02 12:00:36;;;;;;;7.70;1.40;;;13.90;99.90;;;;;;5099253;28;20042;-70
2022/11/02 12:03:05;;;;;;;9.90;1.20;;;13.90;99.90;;;;;;5091359;28;20043;-69
2022/11/02 12:05:39;;;;;;;3.67;0.63;;;13.90;99.90;;;;;;5085874;27;20307;-71
2022/11/02 12:08:30;;;;;;;9.15;0.90;;;13.90;99.90;;;;;;5083313;28;20507;-71
2022/11/02 12:11:05;;;;;;;;;;;13.90;99.90;;;;;;5086449;28;20050;-69
2022/11/02 12:13:58;;;;;;;12.38;1.40;;;13.90;99.90;;;;;;5078868;28;19959;-70
2022/11/02 12:16:39;;;;;;;8.68;1.27;;;13.90;99.90;;;;;;5083620;28;20040;-71
2022/11/02 12:19:23;;;;;;;;;;;13.90;99.90;;;;;;5080279;28;20082;-69
2022/11/02 12:21:52;;;;;;;7.43;1.40;;;13.90;99.90;;;;;;5084071;28;20407;-70
2022/11/02 12:24:41;;;;;;;7.38;0.80;;;14.00;99.90;;;;;;5097977;28;20031;-70
2022/11/02 12:27:26;;;;;;;10.75;1.10;;;14.00;99.90;;;;;;5098156;28;20151;-69
2022/11/02 12:29:57;;;;;;;7.30;1.42;;;14.00;99.90;;;;;;5091012;28;20042;-70
2022/11/02 12:32:43;;;;;;;11.77;1.23;;;14.10;99.90;;;;;;5102101;27;20023;-69
2022/11/02 12:35:40;;;;;;;9.23;1.67;;;14.00;99.90;;;;;;5099382;27;20098;-69
2022/11/02 12:38:18;;;;;;;6.93;1.20;;;14.00;99.90;;;;;;5076773;28;20119;-70
2022/11/02 12:40:53;;;;;;;7.57;1.27;;;14.00;99.90;;;;;;5093262;28;20044;-70
2022/11/02 12:43:36;;;;;;;10.40;1.50;;;14.00;99.90;;;;;;5097063;28;20032;-70
2022/11/02 12:46:14;;;;;;;3.92;0.93;;;14.00;99.90;;;;;;5099226;28;20050;-68
2022/11/02 12:49:08;;;;;;;5.65;1.42;;;14.00;99.90;;;;;;5095766;28;20044;-70
2022/11/02 12:51:42;;;;;;;7.25;0.73;;;14.00;99.90;;;;;;5096391;28;20039;-70
2022/11/02 12:54:19;;;;;;;11.35;1.55;;;14.00;99.90;;;;;;5098167;28;20031;-70
2022/11/02 12:56:52;;;;;;;10.30;1.10;;;14.00;99.90;;;;;;5096011;28;20519;-70
2022/11/02 12:59:24;;;;;;;5.95;1.25;;;14.10;99.90;;;;;;5097555;28;20071;-69
2022/11/02 13:01:56;;;;;;;7.47;1.30;;;14.10;99.90;;;;;;5093728;28;20356;-70
2022/11/02 13:04:27;;;;;;;7.78;1.00;;;14.00;99.90;;;;;;5096684;28;20038;-69
2022/11/02 13:07:03;;;;;;;5.47;0.52;;;14.10;99.90;;;;;;5093624;27;20036;-69
2022/11/02 13:09:40;;;;;;;8.07;1.10;;;14.10;99.90;;;;;;5095967;28;20036;-69
2022/11/02 13:12:15;;;;;;;11.10;1.42;;;14.10;99.90;;;;;;5086086;28;20494;-71
2022/11/02 13:14:44;;;;;;;7.22;0.90;;;14.20;99.90;;;;;;5081281;28;20032;-68
2022/11/02 13:17:25;;;;;;;10.32;1.00;;;14.10;99.90;;;;;;5082836;28;20039;-69
2022/11/02 13:19:57;;;;;;;5.90;1.02;;;14.10;99.90;;;;;;5079440;28;20434;-70